createdAt,value
2019-04-03T00:01:44.376Z,41.48
2019-04-03T00:04:18.171Z,41.40
2019-04-03T00:06:50.520Z,41.40
2019-04-03T00:09:22.951Z,41.69
2019-04-03T00:11:55.284Z,41.77
2019-04-03T00:14:27.761Z,42.21
2019-04-03T00:17:00.350Z,42.21
2019-04-03T00:19:34.515Z,42.26
2019-04-03T00:22:06.981Z,42.25
2019-04-03T00:24:39.488Z,42.42
2019-04-03T00:27:12.086Z,42.38
2019-04-03T00:29:44.827Z,42.50
2019-04-03T00:32:17.226Z,42.65
2019-04-03T00:34:49.896Z,42.65
2019-04-03T00:37:23.269Z,42.75
2019-04-03T00:39:56.108Z,42.66
2019-04-03T00:42:28.556Z,43.10
2019-04-03T00:45:00.917Z,43.10
2019-04-03T00:47:33.401Z,43.04
2019-04-03T00:50:07.998Z,43.27
2019-04-03T00:52:40.407Z,43.31
2019-04-03T00:55:13.187Z,43.18
2019-04-03T00:57:45.752Z,43.41
2019-04-03T01:00:18.216Z,43.58
2019-04-03T01:02:50.576Z,43.60
2019-04-03T01:05:22.961Z,43.73
2019-04-03T01:07:55.546Z,43.76
2019-04-03T01:10:29.654Z,43.83
2019-04-03T01:13:02.362Z,43.93
2019-04-03T01:15:35.597Z,44.29
2019-04-03T01:18:08.006Z,44.19
2019-04-03T01:20:40.622Z,44.24
2019-04-03T01:23:13.231Z,44.27
2019-04-03T01:25:46.191Z,44.29
2019-04-03T01:28:18.758Z,44.27
2019-04-03T01:30:51.236Z,44.54
2019-04-03T01:33:24.676Z,44.66
2019-04-03T01:35:57.281Z,44.60
2019-04-03T01:38:29.726Z,44.66
2019-04-03T01:41:02.257Z,44.76
2019-04-03T01:43:35.011Z,44.75
2019-04-03T01:46:07.446Z,44.63
2019-04-03T01:48:39.753Z,44.88
2019-04-03T01:51:12.426Z,44.78
2019-04-03T01:53:46.217Z,45.02
2019-04-03T01:56:18.715Z,45.21
2019-04-03T01:58:51.301Z,45.28
2019-04-03T02:01:23.963Z,45.48
2019-04-03T02:03:57.601Z,45.50
2019-04-03T02:06:30.186Z,45.26
2019-04-03T02:09:02.651Z,45.55
2019-04-03T02:11:36.160Z,45.76
2019-04-03T02:14:08.511Z,46.05
2019-04-03T02:16:41.012Z,46.04
2019-04-03T02:19:13.897Z,46.27
2019-04-03T02:21:46.236Z,46.11
2019-04-03T02:24:19.106Z,46.22
2019-04-03T02:26:51.719Z,46.31
2019-04-03T02:29:24.006Z,46.46
2019-04-03T02:31:56.631Z,46.59
2019-04-03T02:34:29.147Z,46.56
2019-04-03T02:37:01.591Z,46.48
2019-04-03T02:39:33.943Z,46.56
2019-04-03T02:42:08.854Z,46.76
2019-04-03T02:44:40.619Z,46.78
2019-04-03T02:47:13.199Z,46.92
2019-04-03T02:49:45.753Z,46.99
2019-04-03T02:52:18.108Z,47.16
2019-04-03T02:54:50.519Z,47.21
2019-04-03T02:57:22.961Z,47.34
2019-04-03T02:59:57.862Z,47.44
2019-04-03T03:02:29.693Z,47.54
2019-04-03T03:05:02.648Z,47.68
2019-04-03T03:07:36.298Z,47.83
2019-04-03T03:10:09.642Z,48.02
2019-04-03T03:12:42.373Z,48.13
2019-04-03T03:15:15.028Z,48.28
2019-04-03T03:17:47.572Z,48.33
2019-04-03T03:20:23.873Z,48.44
2019-04-03T03:22:56.485Z,48.79
2019-04-03T03:25:32.110Z,48.72
2019-04-03T03:28:03.106Z,48.86
2019-04-03T03:30:44.290Z,48.79
2019-04-03T03:33:26.994Z,49.53
2019-04-03T03:35:47.198Z,49.91
2019-04-03T03:38:18.313Z,50.87
2019-04-03T03:40:51.229Z,51.19
2019-04-03T03:43:23.801Z,51.85
2019-04-03T03:45:56.298Z,51.85
2019-04-03T03:48:28.928Z,52.07
2019-04-03T03:51:01.379Z,51.92
2019-04-03T03:53:34.478Z,52.12
2019-04-03T03:56:07.341Z,52.34
2019-04-03T03:58:40.301Z,52.24
2019-04-03T04:01:13.062Z,52.07
2019-04-03T04:03:45.986Z,52.37
2019-04-03T04:06:18.258Z,52.54
2019-04-03T04:08:50.977Z,53.15
2019-04-03T04:11:23.507Z,53.36
2019-04-03T04:13:55.800Z,54.00
2019-04-03T04:16:28.271Z,54.35
2019-04-03T04:19:00.946Z,54.80
2019-04-03T04:21:33.647Z,54.82
2019-04-03T04:24:05.993Z,54.84
2019-04-03T04:26:38.373Z,55.39
2019-04-03T04:29:11.513Z,55.43
2019-04-03T04:31:44.457Z,55.66
2019-04-03T04:34:18.907Z,55.48
2019-04-03T04:36:51.231Z,55.75
2019-04-03T04:39:23.402Z,56.07
2019-04-03T04:41:55.860Z,56.33
2019-04-03T04:44:28.270Z,56.25
2019-04-03T04:47:00.717Z,56.05
2019-04-03T04:49:33.002Z,55.87
2019-04-03T04:52:05.719Z,56.20
2019-04-03T04:54:38.194Z,55.90
2019-04-03T04:57:10.711Z,55.99
2019-04-03T04:59:45.190Z,55.55
2019-04-03T05:02:17.846Z,55.28
2019-04-03T05:04:51.257Z,54.67
2019-04-03T05:07:23.941Z,54.43
2019-04-03T05:09:58.010Z,53.79
2019-04-03T05:12:30.426Z,53.14
2019-04-03T05:15:03.044Z,51.87
2019-04-03T05:17:35.791Z,51.93
2019-04-03T05:20:08.501Z,50.32
2019-04-03T05:22:41.126Z,48.81
2019-04-03T05:25:13.941Z,48.34
2019-04-03T05:27:46.571Z,47.43
2019-04-03T05:30:29.324Z,46.54
2019-04-03T05:33:01.976Z,45.79
2019-04-03T05:35:37.416Z,45.02
2019-04-03T05:38:08.969Z,44.69
2019-04-03T05:40:41.560Z,43.47
2019-04-03T05:43:14.228Z,43.44
2019-04-03T05:45:46.671Z,44.45
2019-04-03T05:48:19.375Z,44.61
2019-04-03T05:50:52.311Z,43.73
2019-04-03T05:53:24.896Z,43.42
2019-04-03T05:55:57.476Z,43.22
2019-04-03T05:58:30.129Z,42.93
2019-04-03T06:01:06.209Z,42.83
2019-04-03T06:03:42.195Z,42.16
2019-04-03T06:06:13.995Z,42.23
2019-04-03T06:08:45.881Z,41.81
2019-04-03T06:11:20.654Z,41.39
2019-04-03T06:13:52.466Z,40.88
2019-04-03T06:16:25.245Z,40.37
2019-04-03T06:18:59.123Z,40.45
2019-04-03T06:21:32.681Z,39.86
2019-04-03T06:24:05.139Z,39.30
2019-04-03T06:26:38.510Z,38.95
2019-04-03T06:29:11.256Z,39.08
2019-04-03T06:31:43.981Z,39.20
2019-04-03T06:34:16.301Z,39.37
2019-04-03T06:36:50.762Z,39.30
2019-04-03T06:39:24.089Z,39.17
2019-04-03T06:41:57.014Z,38.25
2019-04-03T06:44:29.560Z,39.03
2019-04-03T06:47:02.054Z,38.71
2019-04-03T06:49:34.533Z,38.13
2019-04-03T06:52:07.282Z,38.01
2019-04-03T06:54:39.471Z,38.12
2019-04-03T06:57:13.896Z,37.85
2019-04-03T06:59:48.751Z,37.15
2019-04-03T07:02:21.012Z,37.33
2019-04-03T07:04:53.526Z,36.80
2019-04-03T07:07:33.001Z,36.57
2019-04-03T07:09:59.812Z,37.16
2019-04-03T07:12:32.270Z,37.16
2019-04-03T07:17:38.157Z,36.32
2019-04-03T07:20:15.364Z,36.07
2019-04-03T07:22:46.885Z,36.14
2019-04-03T07:25:19.148Z,36.41
2019-04-03T07:27:52.346Z,36.35
2019-04-03T07:30:24.573Z,36.21
2019-04-03T07:32:58.287Z,36.06
2019-04-03T07:35:32.501Z,35.95
2019-04-03T07:38:04.775Z,36.18
2019-04-03T07:40:37.619Z,36.00
2019-04-03T07:43:10.106Z,35.66
2019-04-03T07:45:43.862Z,34.73
2019-04-03T07:48:16.160Z,35.14
2019-04-03T07:50:48.538Z,34.85
2019-04-03T07:53:20.895Z,34.76
2019-04-03T07:55:55.112Z,34.83
2019-04-03T07:58:27.107Z,34.43
2019-04-03T08:00:59.447Z,34.14
2019-04-03T08:03:31.697Z,33.75
2019-04-03T08:06:04.446Z,34.00
2019-04-03T08:08:37.107Z,33.94
2019-04-03T08:11:10.426Z,33.62
2019-04-03T08:13:43.862Z,33.10
2019-04-03T08:16:16.696Z,33.21
2019-04-03T08:18:51.418Z,32.96
2019-04-03T08:21:24.044Z,32.90
2019-04-03T08:23:56.202Z,33.00
2019-04-03T08:26:28.381Z,32.95
2019-04-03T08:29:01.741Z,32.56
2019-04-03T08:31:34.441Z,32.71
2019-04-03T08:34:15.489Z,32.67
2019-04-03T08:36:40.701Z,31.89
2019-04-03T08:39:13.692Z,31.66
2019-04-03T08:41:47.571Z,31.77
2019-04-03T08:44:20.310Z,31.58
2019-04-03T08:46:52.998Z,31.41
2019-04-03T08:49:26.323Z,31.77
2019-04-03T08:51:59.360Z,31.33
2019-04-03T08:54:31.562Z,31.43
2019-04-03T08:57:04.398Z,31.91
2019-04-03T08:59:37.321Z,31.36
2019-04-03T09:02:12.723Z,31.08
2019-04-03T09:04:43.881Z,31.20
2019-04-03T09:07:16.537Z,31.40
2019-04-03T09:09:48.784Z,31.12
2019-04-03T09:12:21.232Z,31.17
2019-04-03T09:14:53.371Z,31.33
2019-04-03T09:17:25.807Z,30.91
2019-04-03T09:19:58.331Z,30.65
2019-04-03T09:22:32.243Z,30.87
2019-04-03T09:25:05.781Z,31.13
2019-04-03T09:27:39.847Z,30.55
2019-04-03T09:30:15.713Z,30.43
2019-04-03T09:32:47.764Z,30.45
2019-04-03T09:35:20.141Z,30.24
2019-04-03T09:37:52.281Z,30.64
2019-04-03T09:40:25.797Z,30.47
2019-04-03T09:42:58.321Z,31.06
2019-04-03T09:45:31.418Z,31.09
2019-04-03T09:48:05.609Z,31.28
2019-04-03T09:50:37.056Z,31.26
2019-04-03T09:53:09.176Z,30.90
2019-04-03T09:55:41.556Z,30.96
2019-04-03T09:58:14.155Z,30.56
2019-04-03T10:00:46.350Z,30.25
2019-04-03T10:03:18.841Z,30.44
2019-04-03T10:05:51.236Z,30.85
2019-04-03T10:08:23.752Z,30.01
2019-04-03T10:10:55.996Z,30.39
2019-04-03T10:13:28.376Z,29.81
2019-04-03T10:16:03.231Z,29.38
2019-04-03T10:18:34.516Z,28.78
2019-04-03T10:21:06.858Z,29.19
2019-04-03T10:23:39.156Z,29.66
2019-04-03T10:26:11.337Z,29.81
2019-04-03T10:28:46.863Z,29.20
2019-04-03T10:31:17.589Z,28.83
2019-04-03T10:33:49.916Z,28.74
2019-04-03T10:36:22.126Z,29.42
2019-04-03T10:38:54.216Z,29.48
2019-04-03T10:41:28.670Z,29.42
2019-04-03T10:44:00.636Z,28.96
2019-04-03T10:46:33.240Z,28.79
2019-04-03T10:49:05.516Z,28.83
2019-04-03T10:51:40.901Z,28.50
2019-04-03T10:54:11.956Z,28.32
2019-04-03T10:56:44.396Z,28.23
2019-04-03T10:59:18.475Z,28.63
2019-04-03T11:01:52.336Z,28.57
2019-04-03T11:04:24.638Z,29.10
2019-04-03T11:06:56.968Z,28.69
2019-04-03T11:09:29.156Z,28.53
2019-04-03T11:12:01.471Z,28.47
2019-04-03T11:14:34.156Z,28.46
2019-04-03T11:17:06.296Z,28.64
2019-04-03T11:19:38.771Z,28.60
2019-04-03T11:22:10.816Z,28.39
2019-04-03T11:24:43.322Z,28.40
2019-04-03T11:27:15.551Z,28.75
2019-04-03T11:29:49.764Z,28.08
2019-04-03T11:32:23.189Z,28.15
2019-04-03T11:34:56.330Z,28.13
2019-04-03T11:37:30.145Z,27.76
2019-04-03T11:40:05.445Z,27.85
2019-04-03T11:42:37.481Z,27.93
2019-04-03T11:45:10.881Z,27.85
2019-04-03T11:47:45.287Z,28.03
2019-04-03T11:50:18.036Z,27.82
2019-04-03T11:52:51.761Z,28.28
2019-04-03T11:55:24.494Z,28.11
2019-04-03T11:57:56.866Z,28.24
2019-04-03T12:00:32.052Z,27.93
2019-04-03T12:03:05.602Z,27.88
2019-04-03T12:05:38.321Z,27.54
2019-04-03T12:08:12.563Z,27.49
2019-04-03T12:10:45.267Z,27.22
2019-04-03T12:13:19.452Z,27.41
2019-04-03T12:15:53.504Z,27.31
2019-04-03T12:18:25.508Z,27.38
2019-04-03T12:20:58.157Z,27.72
2019-04-03T12:23:30.591Z,26.95
2019-04-03T12:26:03.802Z,27.11
2019-04-03T12:28:36.271Z,27.45
2019-04-03T12:31:08.918Z,27.44
2019-04-03T12:33:52.005Z,27.08
2019-04-03T12:36:15.058Z,27.24
2019-04-03T12:38:47.733Z,27.54
2019-04-03T12:41:19.961Z,27.09
2019-04-03T12:43:52.789Z,26.66
2019-04-03T12:46:37.869Z,26.67
2019-04-03T12:49:11.419Z,26.53
2019-04-03T12:51:43.776Z,26.21
2019-04-03T12:54:19.905Z,26.70
2019-04-03T12:56:50.378Z,26.87
2019-04-03T12:59:22.858Z,26.62
2019-04-03T13:01:55.184Z,26.75
2019-04-03T13:04:30.260Z,26.55
2019-04-03T13:07:04.489Z,26.51
2019-04-03T13:09:37.980Z,26.70
2019-04-03T13:12:09.923Z,26.27
2019-04-03T13:14:43.261Z,26.20
2019-04-03T13:17:15.816Z,26.03
2019-04-03T13:19:48.336Z,26.23
2019-04-03T13:22:20.564Z,26.42
2019-04-03T13:24:53.252Z,26.01
2019-04-03T13:27:25.717Z,26.07
2019-04-03T13:29:58.144Z,26.32
2019-04-03T13:32:30.546Z,25.97
2019-04-03T13:35:04.891Z,26.45
2019-04-03T13:37:37.602Z,26.47
2019-04-03T13:40:10.027Z,25.94
2019-04-03T13:42:43.897Z,26.08
2019-04-03T13:45:16.107Z,25.94
2019-04-03T13:47:48.257Z,26.21
2019-04-03T13:50:22.544Z,26.24
2019-04-03T13:52:54.682Z,26.19
2019-04-03T13:55:28.835Z,26.49
2019-04-03T13:58:01.181Z,26.69
2019-04-03T14:00:33.984Z,26.67
2019-04-03T14:03:06.317Z,26.14
2019-04-03T14:05:38.436Z,26.12
2019-04-03T14:08:12.877Z,26.69
2019-04-03T14:10:45.084Z,26.59
2019-04-03T14:13:17.789Z,26.48
2019-04-03T14:15:50.718Z,26.77
2019-04-03T14:18:23.157Z,26.75
2019-04-03T14:20:56.262Z,26.64
2019-04-03T14:23:29.575Z,26.96
2019-04-03T14:26:05.592Z,26.98
2019-04-03T14:28:37.423Z,26.79
2019-04-03T14:31:10.517Z,27.31
2019-04-03T14:33:46.267Z,27.27
2019-04-03T14:36:19.160Z,27.22
2019-04-03T14:38:51.715Z,27.14
2019-04-03T14:41:24.118Z,27.21
2019-04-03T14:43:56.502Z,27.87
2019-04-03T14:46:30.606Z,27.46
2019-04-03T14:49:04.354Z,27.49
2019-04-03T14:51:37.025Z,27.67
2019-04-03T14:54:09.183Z,27.68
2019-04-03T14:56:41.520Z,27.47
2019-04-03T14:59:14.475Z,27.60
2019-04-03T15:01:47.577Z,27.59
2019-04-03T15:04:19.854Z,27.78
2019-04-03T15:07:02.138Z,27.72
2019-04-03T15:09:27.937Z,28.12
2019-04-03T15:12:01.677Z,28.12
2019-04-03T15:14:34.668Z,28.25
2019-04-03T15:17:07.131Z,28.33
2019-04-03T15:19:39.458Z,28.37
2019-04-03T15:22:12.111Z,28.25
2019-04-03T15:24:44.656Z,28.31
2019-04-03T15:27:18.204Z,28.59
2019-04-03T15:29:50.617Z,28.54
2019-04-03T15:32:23.396Z,28.57
2019-04-03T15:34:58.736Z,28.65
2019-04-03T15:37:31.311Z,28.50
2019-04-03T15:40:04.757Z,28.52
2019-04-03T15:42:40.289Z,28.63
2019-04-03T15:45:11.754Z,28.54
2019-04-03T15:47:46.782Z,28.86
2019-04-03T15:50:19.195Z,29.16
2019-04-03T15:52:52.233Z,29.12
2019-04-03T15:55:25.403Z,29.01
2019-04-03T15:57:58.437Z,29.18
2019-04-03T16:00:33.676Z,29.05
2019-04-03T16:03:06.090Z,29.25
2019-04-03T16:05:38.634Z,29.23
2019-04-03T16:08:12.444Z,29.39
2019-04-03T16:10:45.711Z,29.53
2019-04-03T16:13:20.858Z,29.49
2019-04-03T16:15:56.354Z,29.58
2019-04-03T16:18:27.264Z,29.88
2019-04-03T16:20:59.537Z,29.76
2019-04-03T16:23:34.253Z,29.94
2019-04-03T16:26:06.712Z,30.05
2019-04-03T16:28:39.526Z,30.08
2019-04-03T16:31:12.767Z,30.29
2019-04-03T16:33:45.641Z,30.59
2019-04-03T16:36:18.670Z,30.86
2019-04-03T16:38:51.688Z,31.06
2019-04-03T16:41:24.652Z,30.82
2019-04-03T16:43:57.146Z,30.97
2019-04-03T16:46:29.862Z,31.17
2019-04-03T16:49:02.401Z,31.30
2019-04-03T16:51:35.763Z,31.39
2019-04-03T16:54:10.954Z,31.46
2019-04-03T16:56:42.667Z,31.49
2019-04-03T16:59:15.431Z,31.62
2019-04-03T17:01:48.496Z,31.61
2019-04-03T17:04:26.090Z,32.02
2019-04-03T17:06:55.690Z,32.08
2019-04-03T17:09:28.235Z,32.13
2019-04-03T17:12:01.096Z,32.33
2019-04-03T17:14:34.198Z,32.39
2019-04-03T17:17:12.442Z,32.53
2019-04-03T17:19:41.426Z,32.58
2019-04-03T17:22:14.254Z,33.01
2019-04-03T17:24:49.524Z,32.82
2019-04-03T17:27:21.514Z,33.18
2019-04-03T17:29:54.357Z,33.32
2019-04-03T17:32:28.969Z,33.40
2019-04-03T17:35:01.391Z,33.71
2019-04-03T17:37:33.851Z,33.61
2019-04-03T17:40:11.134Z,34.13
2019-04-03T17:42:43.946Z,34.17
2019-04-03T17:45:16.527Z,34.45
2019-04-03T17:47:49.724Z,34.33
2019-04-03T17:50:25.386Z,34.28
2019-04-03T17:52:58.011Z,34.39
2019-04-03T17:55:30.411Z,34.59
2019-04-03T17:58:02.914Z,34.76
2019-04-03T18:00:35.572Z,34.96
2019-04-03T18:03:08.161Z,35.03
2019-04-03T18:05:40.461Z,35.15
2019-04-03T18:08:12.931Z,34.98
2019-04-03T18:10:45.601Z,35.22
2019-04-03T18:13:18.091Z,35.22
2019-04-03T18:15:50.427Z,35.34
2019-04-03T18:18:23.226Z,35.41
2019-04-03T18:20:55.996Z,35.54
2019-04-03T18:23:28.631Z,35.80
2019-04-03T18:26:01.071Z,35.90
2019-04-03T18:28:33.941Z,35.90
2019-04-03T18:31:07.871Z,36.09
2019-04-03T18:33:40.876Z,35.89
2019-04-03T18:36:13.441Z,36.01
2019-04-03T18:38:46.066Z,36.19
2019-04-03T18:41:18.816Z,35.97
2019-04-03T18:43:54.146Z,36.03
2019-04-03T18:46:31.920Z,36.34
2019-04-03T18:49:01.582Z,35.99
2019-04-03T18:51:36.820Z,35.98
2019-04-03T18:54:09.749Z,35.92
2019-04-03T18:56:45.611Z,35.91
2019-04-03T18:59:18.037Z,35.91
2019-04-03T19:01:50.886Z,35.86
2019-04-03T19:04:26.366Z,36.15
2019-04-03T19:07:00.831Z,36.16
2019-04-03T19:09:33.026Z,36.29
2019-04-03T19:12:08.743Z,36.34
2019-04-03T19:14:40.741Z,36.19
2019-04-03T19:17:13.631Z,36.33
2019-04-03T19:19:46.311Z,36.47
2019-04-03T19:22:19.067Z,36.62
2019-04-03T19:24:51.922Z,36.72
2019-04-03T19:27:24.351Z,36.69
2019-04-03T19:29:57.336Z,36.93
2019-04-03T19:32:29.918Z,36.86
2019-04-03T19:35:02.583Z,36.88
2019-04-03T19:37:35.592Z,36.71
2019-04-03T19:40:09.888Z,36.88
2019-04-03T19:42:43.912Z,37.22
2019-04-03T19:45:16.618Z,37.31
2019-04-03T19:47:49.266Z,37.37
2019-04-03T19:50:22.061Z,37.47
2019-04-03T19:52:54.901Z,37.46
2019-04-03T19:55:27.401Z,37.82
2019-04-03T19:57:59.936Z,37.81
2019-04-03T20:00:34.677Z,37.90
2019-04-03T20:03:06.376Z,38.02
2019-04-03T20:05:39.202Z,37.95
2019-04-03T20:08:12.101Z,38.12
2019-04-03T20:10:44.399Z,38.15
2019-04-03T20:13:17.041Z,38.51
2019-04-03T20:15:49.311Z,38.19
2019-04-03T20:18:21.681Z,38.59
2019-04-03T20:20:54.456Z,38.78
2019-04-03T20:23:29.952Z,38.72
2019-04-03T20:26:01.217Z,38.95
2019-04-03T20:28:33.736Z,39.03
2019-04-03T20:31:06.153Z,39.16
2019-04-03T20:33:42.080Z,39.20
2019-04-03T20:36:16.557Z,39.23
2019-04-03T20:38:48.686Z,39.44
2019-04-03T20:41:21.092Z,39.53
2019-04-03T20:43:53.513Z,39.59
2019-04-03T20:46:25.871Z,39.75
2019-04-03T20:48:58.746Z,39.67
2019-04-03T20:51:32.802Z,39.69
2019-04-03T20:54:05.566Z,39.87
2019-04-03T20:56:37.943Z,40.02
2019-04-03T20:59:12.038Z,39.92
2019-04-03T21:01:44.858Z,39.86
2019-04-03T21:04:17.144Z,40.01
2019-04-03T21:06:51.518Z,40.27
2019-04-03T21:09:23.626Z,40.18
2019-04-03T21:11:56.361Z,40.33
2019-04-03T21:14:29.051Z,40.40
2019-04-03T21:17:01.782Z,40.36
2019-04-03T21:19:34.456Z,40.46
2019-04-03T21:22:07.333Z,40.60
2019-04-03T21:24:39.861Z,40.79
2019-04-03T21:27:12.541Z,40.96
2019-04-03T21:29:45.318Z,41.13
2019-04-03T21:32:17.881Z,41.30
2019-04-03T21:34:50.819Z,41.36
2019-04-03T21:37:23.451Z,41.45
2019-04-03T21:39:56.016Z,41.62
2019-04-03T21:42:28.296Z,41.71
2019-04-03T21:45:02.755Z,41.73
2019-04-03T21:47:35.441Z,41.88
2019-04-03T21:50:08.061Z,41.96
2019-04-03T21:52:40.451Z,42.21
2019-04-03T21:55:13.001Z,42.38
2019-04-03T21:57:45.436Z,42.42
2019-04-03T22:00:24.141Z,42.76
2019-04-03T22:02:57.221Z,42.85
2019-04-03T22:05:29.901Z,42.88
2019-04-03T22:08:02.191Z,43.28
2019-04-03T22:10:35.075Z,43.45
2019-04-03T22:13:08.301Z,43.61
2019-04-03T22:15:40.886Z,43.72
2019-04-03T22:18:13.601Z,43.84
2019-04-03T22:20:46.396Z,43.86
2019-04-03T22:23:18.761Z,43.79
2019-04-03T22:25:51.177Z,44.08
2019-04-03T22:28:23.745Z,44.38
2019-04-03T22:30:56.101Z,44.37
2019-04-03T22:33:28.565Z,44.60
2019-04-03T22:36:01.266Z,44.72
2019-04-03T22:38:37.188Z,44.85
2019-04-03T22:41:12.126Z,45.05
2019-04-03T22:43:44.114Z,45.25
2019-04-03T22:46:18.241Z,45.35
2019-04-03T22:48:50.655Z,45.26
2019-04-03T22:51:22.936Z,45.53
2019-04-03T22:53:55.421Z,45.70
2019-04-03T22:56:28.671Z,45.63
2019-04-03T22:59:01.367Z,45.94
2019-04-03T23:01:33.696Z,46.19
2019-04-03T23:04:06.245Z,46.35
2019-04-03T23:06:38.941Z,46.65
2019-04-03T23:09:11.520Z,47.02
2019-04-03T23:11:44.216Z,47.24
2019-04-03T23:14:16.831Z,47.34
2019-04-03T23:16:49.321Z,47.38
2019-04-03T23:19:21.771Z,47.36
2019-04-03T23:21:54.840Z,47.34
2019-04-03T23:24:28.886Z,47.49
2019-04-03T23:27:02.676Z,47.60
2019-04-03T23:29:36.582Z,47.30
2019-04-03T23:32:09.432Z,47.25
2019-04-03T23:34:41.841Z,47.21
2019-04-03T23:37:14.400Z,47.27
2019-04-03T23:39:47.036Z,47.11
2019-04-03T23:42:19.658Z,47.22
2019-04-03T23:44:52.071Z,47.15
2019-04-03T23:47:24.602Z,47.42
2019-04-03T23:49:57.180Z,47.54
2019-04-03T23:52:30.791Z,47.75
2019-04-03T23:55:04.810Z,47.75
2019-04-03T23:57:39.586Z,48.01
